Terminal Aerodrome Forecast
Issued by NWS Twin Cities, MN

Home | Current Version | Previous Version | Graphics & Text | Print | Product List | Glossary On
Versions: 1 2 3 4 5 6 7 8 9 10 11 12 13 14 15 16 17 18 19 20 21 22 23 24 25 26 27 28 29 30 31 32 33 34 35
000
FTUS43 KMPX 290900 AAB
TAFMSP
TAF AMD
KMSP 290900Z 2909/3012 14007KT 6SM BR OVC007
     FM291100 17006KT P6SM SCT010 BKN050
      TEMPO 2911/2913 BKN010
     FM291600 20007KT P6SM SCT020 BKN080
     FM291900 22006KT P6SM VCSH SCT025 OVC120 PROB30 2919/2923 5SM
      -TSRA OVC025CB
     FM300600 32004KT P6SM SCT020 BKN090=

USA.gov is the U.S. government's official web portal to all federal, state and local government web resources and services.